Time;durP1;ratioP1;P1;durP2;ratioP2;P2;SDS_P1;SDS_P2;PMS_P1;PMS_P2;Temp;Humidity;BMP_temperature;BMP_pressure;BME280_temperature;BME280_humidity;BME280_pressure;Samples;Min_cycle;Max_cycle;Signal;HPM_P1;HPM_P2
2022/01/26 00:07:07;;;;;;;28.17;19.55;;;3.60;99.90;;;;;;5036242;28;20099;-59
2022/01/26 00:09:34;;;;;;;26.85;17.75;;;3.60;99.90;;;;;;5038432;28;20139;-59
2022/01/26 00:12:00;;;;;;;26.27;18.50;;;3.60;99.90;;;;;;5038700;28;20469;-59
2022/01/26 00:14:27;;;;;;;30.15;20.33;;;3.60;99.90;;;;;;5041337;28;20084;-60
2022/01/26 00:16:54;;;;;;;26.42;17.77;;;3.60;99.90;;;;;;5040127;28;20087;-59
2022/01/26 00:19:24;;;;;;;28.30;18.88;;;3.60;99.90;;;;;;5041318;28;20080;-60
2022/01/26 00:21:52;;;;;;;26.25;17.00;;;3.50;99.90;;;;;;5040403;28;20132;-59
2022/01/26 00:29:22;;;;;;;21.58;15.23;;;3.60;99.90;;;;;;5041660;28;20067;-59
2022/01/26 00:40:24;;;;;;;18.27;11.88;;;3.70;99.90;;;;;;5040290;28;20455;-59
2022/01/26 00:42:54;;;;;;;17.00;11.02;;;3.70;99.90;;;;;;5038705;28;20168;-59
2022/01/26 00:45:25;;;;;;;17.17;11.32;;;3.70;99.90;;;;;;5040192;28;20080;-59
2022/01/26 00:47:51;;;;;;;15.40;11.25;;;3.80;99.90;;;;;;5040349;28;20081;-59
2022/01/26 00:50:18;;;;;;;13.60;9.80;;;3.80;99.90;;;;;;5040458;28;20139;-59
2022/01/26 00:52:52;;;;;;;16.23;10.13;;;3.80;99.90;;;;;;5040502;28;20482;-60
2022/01/26 00:55:19;;;;;;;12.32;8.65;;;3.90;99.90;;;;;;5040048;28;20071;-59
2022/01/26 00:57:46;;;;;;;14.10;10.45;;;3.90;99.90;;;;;;5037245;28;20049;-59
2022/01/26 01:00:19;;;;;;;14.32;10.57;;;4.00;99.90;;;;;;5039379;28;20077;-58
2022/01/26 01:02:46;;;;;;;14.40;10.20;;;4.00;99.90;;;;;;5040147;28;20693;-59
2022/01/26 01:05:19;;;;;;;14.35;9.60;;;4.00;99.90;;;;;;5039627;28;20484;-59
2022/01/26 01:07:48;;;;;;;12.40;9.00;;;4.00;99.90;;;;;;5042366;28;20083;-60
2022/01/26 01:10:18;;;;;;;12.50;8.82;;;4.00;99.90;;;;;;5042972;28;20072;-60
2022/01/26 01:12:47;;;;;;;13.43;9.52;;;4.00;99.90;;;;;;5043855;28;20052;-59
2022/01/26 01:15:14;;;;;;;13.55;10.00;;;4.00;99.90;;;;;;5035200;28;20449;-59
2022/01/26 01:17:47;;;;;;;13.07;9.52;;;4.00;99.90;;;;;;5023899;28;20609;-59
2022/01/26 01:30:47;;;;;;;13.10;8.52;;;4.10;99.90;;;;;;5043069;28;20080;-59
2022/01/26 01:33:24;;;;;;;13.68;9.52;;;4.10;99.90;;;;;;5043097;28;20389;-59
2022/01/26 01:35:52;;;;;;;12.77;8.63;;;4.10;99.90;;;;;;5042914;28;20083;-59
2022/01/26 01:38:19;;;;;;;15.43;10.35;;;4.00;99.90;;;;;;5042826;28;20077;-59
2022/01/26 01:40:47;;;;;;;15.43;10.52;;;4.00;99.90;;;;;;5042210;28;20126;-59
2022/01/26 01:43:15;;;;;;;14.68;10.45;;;4.00;99.90;;;;;;5043130;28;20125;-59
2022/01/26 01:45:45;;;;;;;15.88;10.63;;;4.00;99.90;;;;;;5042466;28;20161;-59
2022/01/26 01:48:15;;;;;;;15.75;11.43;;;4.00;99.90;;;;;;5043076;28;20063;-59
2022/01/26 01:50:42;;;;;;;14.70;10.25;;;4.00;99.90;;;;;;5044832;28;20156;-59
2022/01/26 01:53:09;;;;;;;16.33;11.02;;;4.00;99.90;;;;;;5046521;28;20571;-59
2022/01/26 01:55:40;;;;;;;15.77;10.63;;;3.90;99.90;;;;;;5044740;28;20116;-59
2022/01/26 01:58:07;;;;;;;15.50;11.25;;;3.90;99.90;;;;;;5046624;28;20139;-59
2022/01/26 02:00:34;;;;;;;14.57;10.23;;;3.90;99.90;;;;;;5046310;28;20158;-59
2022/01/26 02:03:01;;;;;;;17.30;11.35;;;3.90;99.90;;;;;;5045988;28;20213;-59
2022/01/26 02:05:28;;;;;;;14.68;11.43;;;3.90;99.90;;;;;;5046350;28;20087;-59
2022/01/26 02:07:55;;;;;;;14.18;10.57;;;3.90;99.90;;;;;;5046639;28;20055;-59
2022/01/26 02:10:24;;;;;;;15.55;11.48;;;3.90;99.90;;;;;;5045568;28;20412;-59
2022/01/26 02:12:59;;;;;;;15.45;10.95;;;3.90;99.90;;;;;;5046433;28;20139;-59
2022/01/26 02:15:38;;;;;;;12.48;9.00;;;3.90;99.90;;;;;;5046278;28;20128;-59
2022/01/26 02:56:03;;;;;;;12.38;8.50;;;4.00;99.90;;;;;;5045369;28;20406;-57
2022/01/26 03:01:21;;;;;;;14.85;9.20;;;4.00;99.90;;;;;;5036698;28;20080;-59
2022/01/26 03:03:59;;;;;;;13.43;8.95;;;4.00;99.90;;;;;;5036429;28;20408;-58
2022/01/26 03:06:34;;;;;;;14.27;9.40;;;3.90;99.90;;;;;;5038620;28;20053;-58
2022/01/26 03:09:08;;;;;;;13.38;9.43;;;3.90;99.90;;;;;;5037159;28;20179;-60
2022/01/26 03:11:37;;;;;;;;;;;3.90;99.90;;;;;;5041921;28;20080;-59
2022/01/26 03:14:19;;;;;;;13.52;9.23;;;3.90;99.90;;;;;;5045951;28;20034;-59
2022/01/26 03:16:52;;;;;;;12.40;8.88;;;3.90;99.90;;;;;;5045595;28;20076;-59
2022/01/26 03:19:24;;;;;;;12.07;7.85;;;3.90;99.90;;;;;;5045608;28;20144;-59
2022/01/26 03:33:09;;;;;;;13.27;8.65;;;4.00;99.90;;;;;;5043307;28;20393;-58
2022/01/26 03:35:48;;;;;;;10.95;7.30;;;4.00;99.90;;;;;;5044747;28;20136;-59
2022/01/26 03:38:25;;;;;;;14.13;9.98;;;4.00;99.90;;;;;;5042997;28;20073;-59
2022/01/26 03:43:37;;;;;;;16.38;11.13;;;4.00;99.90;;;;;;5044300;28;20084;-59
2022/01/26 03:46:04;;;;;;;15.23;10.80;;;4.00;99.90;;;;;;5043774;28;20166;-59
2022/01/26 03:48:31;;;;;;;15.05;10.55;;;4.00;99.90;;;;;;5025941;28;20050;-59
2022/01/26 03:50:59;;;;;;;15.80;10.68;;;4.00;99.90;;;;;;5044462;28;20041;-59
2022/01/26 03:53:25;;;;;;;16.73;10.40;;;4.10;99.90;;;;;;5043985;28;20076;-59
2022/01/26 03:55:52;;;;;;;16.65;10.45;;;4.10;99.90;;;;;;5044013;28;20076;-59
2022/01/26 03:58:19;;;;;;;16.38;11.20;;;4.10;99.90;;;;;;5043133;28;20626;-58
2022/01/26 04:00:45;;;;;;;15.95;11.30;;;4.00;99.90;;;;;;5043644;28;20076;-59
2022/01/26 04:03:12;;;;;;;14.23;9.73;;;4.00;99.90;;;;;;5044474;28;20053;-59
2022/01/26 04:05:39;;;;;;;16.75;10.52;;;4.10;99.90;;;;;;5044527;28;20048;-59
2022/01/26 04:08:15;;;;;;;15.05;9.93;;;4.00;99.90;;;;;;5043338;28;20444;-59
2022/01/26 04:11:02;;;;;;;14.75;10.57;;;4.00;99.90;;;;;;5043652;28;20180;-59
2022/01/26 04:13:29;;;;;;;15.88;10.00;;;4.00;99.90;;;;;;5034682;28;20136;-59
2022/01/26 04:15:56;;;;;;;14.93;9.63;;;4.00;99.90;;;;;;5044819;28;20107;-59
2022/01/26 04:18:29;;;;;;;12.88;9.00;;;4.00;99.90;;;;;;5044099;28;20070;-59
2022/01/26 04:21:01;;;;;;;14.10;8.32;;;4.00;99.90;;;;;;5043962;28;20107;-59
2022/01/26 04:26:04;;;;;;;12.48;8.90;;;4.00;99.90;;;;;;5043590;28;20136;-59
2022/01/26 04:28:38;;;;;;;12.80;9.50;;;4.00;99.90;;;;;;5030534;28;20076;-60
2022/01/26 04:31:05;;;;;;;14.57;10.02;;;4.00;99.90;;;;;;5044394;28;20052;-59
2022/01/26 04:33:33;;;;;;;13.85;9.77;;;4.00;99.90;;;;;;5043426;28;20707;-59
2022/01/26 04:36:02;;;;;;;15.00;9.98;;;4.00;99.90;;;;;;5043997;28;20052;-59
2022/01/26 04:38:38;;;;;;;13.18;9.35;;;4.00;99.90;;;;;;5042547;28;20077;-59
2022/01/26 04:43:54;;;;;;;14.05;10.23;;;4.00;99.90;;;;;;5036805;28;20067;-58
2022/01/26 04:46:21;;;;;;;14.50;9.90;;;4.10;99.90;;;;;;5043786;28;20055;-59
2022/01/26 04:48:48;;;;;;;14.63;10.23;;;4.10;99.90;;;;;;5043808;28;20444;-59
2022/01/26 04:51:15;;;;;;;13.43;9.48;;;4.10;99.90;;;;;;5043587;28;20124;-58
2022/01/26 04:53:41;;;;;;;16.40;10.77;;;4.10;99.90;;;;;;5043271;28;20148;-58
2022/01/26 04:56:08;;;;;;;16.48;10.75;;;4.10;99.90;;;;;;5043170;28;20084;-59
2022/01/26 04:58:35;;;;;;;16.35;11.00;;;4.10;99.90;;;;;;5043891;28;20076;-60
2022/01/26 05:01:01;;;;;;;15.35;10.02;;;4.10;99.90;;;;;;5043720;28;20073;-59
2022/01/26 05:03:28;;;;;;;15.75;10.55;;;4.10;99.90;;;;;;5043581;28;20396;-59
2022/01/26 05:05:55;;;;;;;16.08;9.63;;;4.10;99.90;;;;;;5043772;28;20439;-59
2022/01/26 05:08:22;;;;;;;16.90;10.60;;;4.10;99.90;;;;;;5043620;28;20575;-58
2022/01/26 05:10:49;;;;;;;14.63;9.85;;;4.20;99.90;;;;;;5041621;28;20136;-59
2022/01/26 05:13:16;;;;;;;14.85;9.65;;;4.20;99.90;;;;;;5043759;28;20126;-55
2022/01/26 05:15:43;;;;;;;15.57;10.45;;;4.20;99.90;;;;;;5043539;28;20076;-59
2022/01/26 05:18:10;;;;;;;18.20;11.27;;;4.20;99.90;;;;;;5043924;28;20135;-59
2022/01/26 05:20:37;;;;;;;17.17;11.48;;;4.20;99.90;;;;;;5042016;28;20183;-59
2022/01/26 05:23:04;;;;;;;18.67;12.43;;;4.20;99.90;;;;;;5043440;28;20073;-59
2022/01/26 05:25:31;;;;;;;18.35;12.07;;;4.20;99.90;;;;;;5046451;28;20143;-59
2022/01/26 05:27:57;;;;;;;22.00;12.07;;;4.20;99.90;;;;;;5047894;28;20098;-59
2022/01/26 05:30:24;;;;;;;18.05;11.95;;;4.20;99.90;;;;;;5047107;28;20077;-60
2022/01/26 05:32:51;;;;;;;19.85;13.15;;;4.20;99.90;;;;;;5047318;28;20080;-59
2022/01/26 05:35:18;;;;;;;17.85;11.63;;;4.20;99.90;;;;;;5047765;28;20076;-59
2022/01/26 05:37:45;;;;;;;19.30;12.23;;;4.20;99.90;;;;;;5046983;28;20084;-59
2022/01/26 05:40:12;;;;;;;15.90;10.55;;;4.20;99.90;;;;;;5045093;28;20698;-59
2022/01/26 05:42:41;;;;;;;16.13;11.02;;;4.20;99.90;;;;;;5047007;28;20229;-59
2022/01/26 05:45:18;;;;;;;17.90;11.43;;;4.30;99.90;;;;;;5047832;28;20143;-59
2022/01/26 05:47:44;;;;;;;14.50;9.57;;;4.30;99.90;;;;;;5047036;28;20083;-59
2022/01/26 05:50:11;;;;;;;15.43;9.43;;;4.30;99.90;;;;;;5042847;28;20179;-59
2022/01/26 05:52:38;;;;;;;16.63;10.07;;;4.30;99.90;;;;;;5044989;28;20568;-59
2022/01/26 05:55:05;;;;;;;16.77;10.82;;;4.30;99.90;;;;;;5045904;28;20080;-58
2022/01/26 05:57:32;;;;;;;16.40;10.52;;;4.30;99.90;;;;;;5044000;28;20526;-60
2022/01/26 05:59:59;;;;;;;17.70;11.52;;;4.40;99.90;;;;;;5044757;28;20083;-59
2022/01/26 06:02:26;;;;;;;16.50;10.68;;;4.40;99.90;;;;;;5041757;28;20127;-59
2022/01/26 06:04:53;;;;;;;16.33;10.20;;;4.40;99.90;;;;;;5043757;28;20072;-60
2022/01/26 06:07:20;;;;;;;20.13;12.25;;;4.40;99.90;;;;;;5039669;28;20052;-59
2022/01/26 06:09:46;;;;;;;17.02;10.80;;;4.40;99.90;;;;;;5041385;28;20483;-59
2022/01/26 06:12:13;;;;;;;17.48;11.73;;;4.40;99.90;;;;;;5039839;28;20100;-58
2022/01/26 06:14:40;;;;;;;17.27;10.95;;;4.40;99.90;;;;;;5042443;28;20080;-59
2022/01/26 06:17:07;;;;;;;16.02;9.65;;;4.40;99.90;;;;;;5039973;28;20804;-60
2022/01/26 06:19:34;;;;;;;18.15;11.25;;;4.40;99.90;;;;;;5041639;28;20052;-59
2022/01/26 06:22:01;;;;;;;13.73;10.07;;;4.40;99.90;;;;;;5034646;28;20644;-59
2022/01/26 06:24:29;;;;;;;15.90;10.65;;;4.40;99.90;;;;;;5032579;28;20521;-59
2022/01/26 06:26:56;;;;;;;15.52;11.15;;;4.50;99.90;;;;;;5039176;28;20081;-59
2022/01/26 06:29:22;;;;;;;15.35;10.75;;;4.50;99.90;;;;;;5039040;28;20655;-59
2022/01/26 06:31:49;;;;;;;16.40;10.95;;;4.50;99.90;;;;;;5033676;28;20088;-58
2022/01/26 06:34:16;;;;;;;14.82;10.25;;;4.50;99.90;;;;;;5030994;28;20040;-58
2022/01/26 06:36:43;;;;;;;16.90;11.13;;;4.50;99.90;;;;;;5030127;28;20585;-56
2022/01/26 06:39:11;;;;;;;15.23;9.45;;;4.50;99.90;;;;;;5025624;28;20519;-57
2022/01/26 06:41:39;;;;;;;18.52;11.93;;;4.50;99.90;;;;;;5036429;28;20153;-58
2022/01/26 06:44:17;;;;;;;17.58;10.48;;;4.60;99.90;;;;;;5039638;28;20171;-58
2022/01/26 06:49:43;;;;;;;17.48;11.35;;;4.50;99.90;;;;;;5003786;28;20569;-57
2022/01/26 06:52:10;;;;;;;15.60;10.10;;;4.50;99.90;;;;;;5037681;28;20344;-58
2022/01/26 06:54:37;;;;;;;15.90;10.93;;;4.50;99.90;;;;;;5036054;28;20212;-60
2022/01/26 06:57:04;;;;;;;16.42;10.73;;;4.60;99.90;;;;;;5035940;28;20073;-58
2022/01/26 06:59:31;;;;;;;13.98;9.20;;;4.60;99.90;;;;;;5037564;28;20152;-58
2022/01/26 07:01:57;;;;;;;15.85;10.60;;;4.60;99.90;;;;;;5033262;28;20076;-58
2022/01/26 07:04:24;;;;;;;17.98;11.85;;;4.60;99.90;;;;;;5025821;28;20491;-59
2022/01/26 07:06:51;;;;;;;16.90;10.55;;;4.60;99.90;;;;;;5036664;28;20138;-58
2022/01/26 07:09:18;;;;;;;15.35;10.43;;;4.60;99.90;;;;;;5036237;28;20132;-55
2022/01/26 07:11:46;;;;;;;16.25;9.85;;;4.70;99.90;;;;;;5032456;28;20479;-58
2022/01/26 07:14:22;;;;;;;15.32;10.55;;;4.60;99.90;;;;;;5027304;28;20083;-58
2022/01/26 07:19:53;;;;;;;15.35;10.63;;;4.70;99.90;;;;;;5027958;28;20045;-58
2022/01/26 07:22:20;;;;;;;14.75;9.73;;;4.70;99.90;;;;;;5027658;28;20638;-58
2022/01/26 07:24:46;;;;;;;15.65;10.55;;;4.70;99.90;;;;;;5038644;28;20080;-58
2022/01/26 07:27:13;;;;;;;16.48;10.68;;;4.70;99.90;;;;;;5037573;28;20144;-58
2022/01/26 07:29:40;;;;;;;14.30;9.68;;;4.70;99.90;;;;;;5039009;28;20455;-58
2022/01/26 07:32:07;;;;;;;16.50;10.55;;;4.80;99.90;;;;;;5038238;28;20171;-59
2022/01/26 07:34:34;;;;;;;14.15;10.00;;;4.80;99.90;;;;;;5038847;28;20057;-58
2022/01/26 07:37:06;;;;;;;13.07;9.45;;;4.80;99.90;;;;;;5038196;28;20076;-59
2022/01/26 07:39:43;;;;;;;15.05;9.85;;;4.80;99.90;;;;;;5037961;28;20116;-59
2022/01/26 07:42:10;;;;;;;15.07;9.48;;;4.80;99.90;;;;;;5037737;28;20176;-59
2022/01/26 07:44:37;;;;;;;11.93;8.80;;;4.80;99.90;;;;;;5038049;28;20080;-59
2022/01/26 07:47:04;;;;;;;13.52;9.50;;;4.90;99.90;;;;;;5036994;28;20148;-59
2022/01/26 07:49:31;;;;;;;13.18;8.65;;;4.90;99.90;;;;;;5038634;28;20136;-59
2022/01/26 07:51:59;;;;;;;15.55;10.15;;;4.90;99.90;;;;;;5037142;28;20164;-58
2022/01/26 07:54:26;;;;;;;13.95;9.48;;;4.90;99.90;;;;;;5038486;28;20127;-59
2022/01/26 07:56:53;;;;;;;15.35;9.18;;;5.00;99.90;;;;;;5037537;28;20167;-59
2022/01/26 07:59:19;;;;;;;13.13;8.88;;;5.00;99.90;;;;;;5037914;28;20080;-58
2022/01/26 08:01:46;;;;;;;16.98;10.02;;;5.00;99.90;;;;;;5037660;28;20135;-57
2022/01/26 08:04:13;;;;;;;13.30;9.00;;;5.00;99.90;;;;;;5037645;28;20048;-58
2022/01/26 08:06:40;;;;;;;14.05;9.00;;;5.00;99.90;;;;;;5037470;28;20484;-56
2022/01/26 08:09:07;;;;;;;14.80;9.43;;;5.00;99.90;;;;;;5038060;28;20136;-58
2022/01/26 08:11:34;;;;;;;13.82;8.57;;;5.10;99.90;;;;;;5037417;28;20088;-59
2022/01/26 08:14:01;;;;;;;12.23;8.85;;;5.10;99.90;;;;;;5037463;28;20078;-58
2022/01/26 08:16:27;;;;;;;13.80;9.63;;;5.20;99.90;;;;;;5038206;28;20068;-58
2022/01/26 08:18:54;;;;;;;12.38;8.55;;;5.20;99.90;;;;;;5036709;28;20063;-58
2022/01/26 08:21:21;;;;;;;11.60;9.30;;;5.30;99.90;;;;;;5037847;28;20112;-59
2022/01/26 08:23:48;;;;;;;11.55;7.70;;;5.30;99.90;;;;;;5036656;28;20138;-58
2022/01/26 08:26:20;;;;;;;11.93;8.85;;;5.30;99.90;;;;;;5032597;28;20415;-58
2022/01/26 08:28:52;;;;;;;11.35;8.55;;;5.40;99.90;;;;;;5028154;28;20187;-58
2022/01/26 08:31:19;;;;;;;16.17;9.27;;;5.40;99.90;;;;;;5038197;28;20547;-58
2022/01/26 08:33:46;;;;;;;12.93;9.65;;;5.40;99.90;;;;;;5031421;28;20308;-58
2022/01/26 08:36:13;;;;;;;13.05;9.50;;;5.50;99.90;;;;;;5028470;28;20092;-59
2022/01/26 08:38:40;;;;;;;15.23;9.45;;;5.50;99.90;;;;;;5028418;28;20167;-59
2022/01/26 08:41:07;;;;;;;14.38;9.48;;;5.60;99.90;;;;;;5029050;28;20428;-59
2022/01/26 08:43:34;;;;;;;13.50;9.10;;;5.60;99.90;;;;;;5031730;28;20471;-58
2022/01/26 08:46:01;;;;;;;11.20;9.25;;;5.60;99.90;;;;;;5027708;28;20523;-59
2022/01/26 08:48:28;;;;;;;12.52;8.05;;;5.60;99.90;;;;;;5023329;28;20048;-59
2022/01/26 08:50:55;;;;;;;13.45;9.00;;;5.60;99.90;;;;;;5035454;28;20116;-59
2022/01/26 08:53:22;;;;;;;12.95;9.20;;;5.60;99.90;;;;;;5035839;28;20285;-58
2022/01/26 08:55:51;;;;;;;13.45;8.60;;;5.60;99.90;;;;;;5035707;28;20503;-58
2022/01/26 08:58:19;;;;;;;13.52;9.55;;;5.70;99.90;;;;;;5039016;28;20456;-58
2022/01/26 09:00:46;;;;;;;12.88;9.48;;;5.70;99.90;;;;;;5041128;28;20139;-59
2022/01/26 09:03:15;;;;;;;12.75;8.15;;;5.70;99.90;;;;;;5031652;28;20120;-58
2022/01/26 09:05:42;;;;;;;10.77;7.93;;;5.80;99.90;;;;;;5031586;28;20045;-58
2022/01/26 09:08:09;;;;;;;11.93;8.05;;;5.90;99.90;;;;;;5028846;28;20134;-58
2022/01/26 09:10:38;;;;;;;12.00;8.07;;;5.90;99.90;;;;;;5032758;28;20136;-58
2022/01/26 09:15:56;;;;;;;10.82;7.28;;;6.00;99.90;;;;;;1357336;26;20050;-81
2022/01/26 09:18:34;;;;;;;11.60;8.25;;;6.00;99.90;;;;;;4974176;28;20050;-82
2022/01/26 09:21:01;;;;;;;13.80;9.25;;;6.00;99.90;;;;;;4977008;28;20061;-81
2022/01/26 09:23:28;;;;;;;11.95;8.65;;;6.10;99.90;;;;;;4966480;28;20404;-82
2022/01/26 09:25:58;;;;;;;14.68;10.07;;;6.20;99.90;;;;;;4968514;28;20058;-82
2022/01/26 09:28:26;;;;;;;12.32;8.32;;;6.10;99.90;;;;;;4970767;28;20057;-82
2022/01/26 09:30:53;;;;;;;13.50;8.88;;;6.20;99.90;;;;;;4971573;28;20144;-81
2022/01/26 09:33:20;;;;;;;13.55;8.57;;;6.20;99.90;;;;;;4970521;28;20626;-81
2022/01/26 09:35:50;;;;;;;12.98;8.93;;;6.30;99.90;;;;;;4987856;28;20053;-82
2022/01/26 09:38:17;;;;;;;11.73;8.18;;;6.40;99.90;;;;;;4987327;28;20053;-82
2022/01/26 09:40:48;;;;;;;11.10;8.27;;;6.40;99.90;;;;;;4970710;28;20081;-82
2022/01/26 09:43:17;;;;;;;10.68;7.47;;;6.40;99.90;;;;;;4966808;28;20061;-81
2022/01/26 09:45:44;;;;;;;14.18;10.02;;;6.50;99.90;;;;;;4951094;28;20465;-82
2022/01/26 09:48:13;;;;;;;13.00;9.18;;;6.60;99.90;;;;;;4951662;28;20117;-81
2022/01/26 09:50:53;;;;;;;10.57;8.25;;;6.60;99.90;;;;;;4984234;28;20578;-82
2022/01/26 09:53:26;;;;;;;11.00;8.75;;;6.60;99.90;;;;;;4952978;28;20047;-82
2022/01/26 09:55:53;;;;;;;13.07;8.98;;;6.70;99.90;;;;;;4971881;28;20583;-82
2022/01/26 09:58:20;;;;;;;11.68;8.52;;;6.70;99.90;;;;;;4974539;28;20512;-82
2022/01/26 10:00:57;;;;;;;12.20;8.65;;;6.70;99.90;;;;;;4959745;28;20057;-82
2022/01/26 10:03:30;;;;;;;13.18;9.50;;;6.80;99.90;;;;;;4954636;28;20113;-82
2022/01/26 10:05:57;;;;;;;13.35;9.15;;;6.70;99.90;;;;;;4963092;28;20054;-82
2022/01/26 10:17:24;;;;;;;14.75;10.55;;;6.70;99.90;;;;;;4970897;28;20058;-82
2022/01/26 10:19:58;;;;;;;17.55;10.85;;;6.80;99.90;;;;;;4943062;28;20516;-82
2022/01/26 10:22:29;;;;;;;15.73;11.50;;;6.70;99.90;;;;;;4953505;28;20046;-83
2022/01/26 10:25:18;;;;;;;13.38;10.23;;;6.80;99.90;;;;;;4950245;28;20054;-82
2022/01/26 10:28:04;;;;;;;13.25;10.25;;;6.90;99.90;;;;;;4941463;28;20486;-82
2022/01/26 10:35:21;;;;;;;;;;;;;;;;;;;;;
2022/01/26 10:38:56;;;;;;;;;;;;;;;;;;;;;
2022/01/26 10:42:22;;;;;;;;;;;;;;;;;;;;;
2022/01/26 11:09:33;;;;;;;;;;;;;;;;;;;;;
2022/01/26 11:16:09;;;;;;;13.27;9.10;;;7.60;99.90;;;;;;5092792;27;20521;-60
2022/01/26 11:18:51;;;;;;;13.68;9.75;;;7.60;99.90;;;;;;5083923;28;20055;-60
2022/01/26 11:21:25;;;;;;;13.95;9.63;;;7.60;99.90;;;;;;5086516;28;20455;-60
2022/01/26 11:24:06;;;;;;;11.02;8.23;;;7.60;99.90;;;;;;5084955;28;20128;-59
2022/01/26 11:26:33;;;;;;;9.13;7.47;;;7.70;99.90;;;;;;5080124;28;20083;-59
2022/01/26 11:29:00;;;;;;;11.75;8.48;;;7.80;99.90;;;;;;5085037;28;20141;-60
2022/01/26 11:31:28;;;;;;;13.10;9.82;;;7.80;99.90;;;;;;5082140;28;20985;-60
2022/01/26 11:34:16;;;;;;;13.95;9.85;;;7.80;99.90;;;;;;5077752;28;20046;-60
2022/01/26 11:36:43;;;;;;;10.60;7.75;;;7.80;99.90;;;;;;5058530;28;20079;-59
2022/01/26 11:42:13;;;;;;;11.45;8.15;;;7.80;99.90;;;;;;5059684;28;20044;-59
2022/01/26 11:47:30;;;;;;;14.63;10.07;;;7.70;99.90;;;;;;5076109;28;20511;-58
2022/01/26 11:50:24;;;;;;;12.13;9.02;;;7.70;99.90;;;;;;5085493;28;20610;-58
2022/01/26 11:53:06;;;;;;;12.95;8.88;;;7.80;99.90;;;;;;5073796;28;20470;-58
2022/01/26 11:55:34;;;;;;;13.83;9.13;;;7.90;99.90;;;;;;5075623;28;20056;-60
2022/01/26 11:58:19;;;;;;;11.27;7.72;;;7.90;99.90;;;;;;5082364;28;20049;-60
2022/01/26 12:01:09;;;;;;;12.52;9.65;;;7.90;99.90;;;;;;5088597;28;20128;-60
2022/01/26 12:03:43;;;;;;;14.15;10.57;;;7.90;99.90;;;;;;5078710;28;20055;-59
2022/01/26 12:06:19;;;;;;;12.13;9.00;;;7.90;99.90;;;;;;5086883;28;20047;-60
2022/01/26 12:08:46;;;;;;;10.27;8.25;;;7.90;99.90;;;;;;5074231;28;20412;-60
2022/01/26 12:11:15;;;;;;;11.55;8.30;;;8.00;99.90;;;;;;5084236;28;20072;-60
2022/01/26 12:13:43;;;;;;;12.63;9.43;;;7.90;99.90;;;;;;5077664;28;20055;-60
2022/01/26 12:16:14;;;;;;;12.10;8.38;;;8.00;99.90;;;;;;5086092;28;20071;-60
2022/01/26 12:18:57;;;;;;;11.05;8.27;;;8.10;99.90;;;;;;5085996;28;20534;-58
2022/01/26 12:43:12;;;;;;;11.43;8.10;;;8.30;99.90;;;;;;5071725;28;20125;-58
2022/01/26 12:45:55;;;;;;;13.68;7.90;;;8.30;99.90;;;;;;5072758;28;20044;-59
2022/01/26 12:48:21;;;;;;;10.60;6.72;;;8.40;99.90;;;;;;5071039;28;20105;-58
2022/01/26 12:50:48;;;;;;;12.45;8.15;;;8.50;99.90;;;;;;5052906;28;20130;-58
2022/01/26 12:53:15;;;;;;;13.88;7.90;;;8.60;99.90;;;;;;5051815;28;20558;-58
2022/01/26 12:55:42;;;;;;;10.40;6.75;;;8.50;99.90;;;;;;5056720;28;20079;-58
2022/01/26 12:58:08;;;;;;;9.57;6.18;;;8.40;99.90;;;;;;5070455;28;20158;-57
2022/01/26 13:00:43;;;;;;;10.95;6.78;;;8.40;99.90;;;;;;5071913;28;20076;-58
2022/01/26 13:03:14;;;;;;;7.72;4.85;;;8.50;99.90;;;;;;5069850;28;20082;-58
2022/01/26 13:05:42;;;;;;;7.93;5.28;;;8.60;99.90;;;;;;5068269;28;20055;-58
2022/01/26 13:08:10;;;;;;;6.88;4.88;;;8.70;99.90;;;;;;5071107;28;20071;-58
2022/01/26 13:10:38;;;;;;;10.27;6.10;;;8.70;99.90;;;;;;5071908;28;20382;-58
2022/01/26 13:13:15;;;;;;;9.68;6.10;;;8.70;99.90;;;;;;5069244;28;20080;-57
2022/01/26 13:15:51;;;;;;;7.78;4.72;;;8.80;99.90;;;;;;5067859;28;20110;-57
2022/01/26 13:18:34;;;;;;;6.97;5.30;;;8.90;99.90;;;;;;5069981;28;20123;-57
2022/01/26 13:23:45;;;;;;;8.20;5.40;;;8.90;99.90;;;;;;5067233;28;20135;-58
2022/01/26 13:36:43;;;;;;;13.95;7.97;;;8.70;99.90;;;;;;5068211;28;20543;-58
2022/01/26 13:41:56;;;;;;;11.18;7.63;;;8.60;99.90;;;;;;5063057;28;20052;-58
2022/01/26 13:59:51;;;;;;;8.95;5.60;;;8.60;99.90;;;;;;5064241;28;21495;-59
2022/01/26 14:02:17;;;;;;;6.68;4.95;;;8.60;99.90;;;;;;5068975;28;20080;-59
2022/01/26 14:04:45;;;;;;;9.10;5.55;;;8.80;99.90;;;;;;5060495;28;20120;-59
2022/01/26 14:07:12;;;;;;;7.40;4.88;;;8.90;99.90;;;;;;5058296;28;20499;-59
2022/01/26 14:09:40;;;;;;;10.65;5.97;;;9.00;99.90;;;;;;5061166;28;20589;-59
2022/01/26 14:12:11;;;;;;;6.65;5.15;;;9.10;99.90;;;;;;5075106;28;20553;-58
2022/01/26 14:14:42;;;;;;;6.68;4.65;;;9.30;99.90;;;;;;5067135;28;20114;-58
2022/01/26 14:17:23;;;;;;;6.35;4.68;;;9.60;99.90;;;;;;5069338;28;20642;-59
2022/01/26 14:20:07;;;;;;;6.97;4.97;;;9.90;99.90;;;;;;5065831;28;20048;-59
2022/01/26 14:27:36;;;;;;;7.72;5.13;;;10.30;99.90;;;;;;5079716;28;20407;-59
2022/01/26 14:30:17;;;;;;;7.18;4.80;;;10.40;99.90;;;;;;5067841;28;20080;-59
2022/01/26 14:51:46;;;;;;;5.43;4.68;;;11.30;99.90;;;;;;5058513;28;20044;-59
2022/01/26 14:54:19;;;;;;;8.10;5.03;;;11.30;99.90;;;;;;5059100;28;20048;-59
2022/01/26 15:12:00;;;;;;;6.10;4.55;;;9.60;99.90;;;;;;5062778;28;20163;-57
2022/01/26 15:19:22;;;;;;;7.95;5.93;;;9.00;99.90;;;;;;5068026;28;20059;-59
2022/01/26 15:33:21;;;;;;;7.95;5.65;;;8.50;99.90;;;;;;5052399;28;20055;-59
2022/01/26 15:41:08;;;;;;;8.98;5.80;;;8.50;99.90;;;;;;5063061;28;20123;-60
2022/01/26 15:43:53;;;;;;;7.55;5.45;;;8.40;99.90;;;;;;5062180;28;20048;-59
2022/01/26 15:51:50;;;;;;;9.82;7.18;;;8.30;99.90;;;;;;5058091;28;20068;-60
2022/01/26 16:08:30;;;;;;;9.73;7.72;;;8.20;99.90;;;;;;5062882;28;20049;-59
2022/01/26 16:16:41;;;;;;;8.88;6.35;;;8.10;99.90;;;;;;5042565;28;20101;-60
2022/01/26 16:36:16;;;;;;;13.13;9.95;;;8.00;99.90;;;;;;5061858;28;20045;-59
2022/01/26 16:52:26;;;;;;;9.88;8.35;;;7.90;99.90;;;;;;5061794;28;20056;-59
2022/01/26 17:12:35;;;;;;;12.80;9.90;;;7.60;99.90;;;;;;5059025;28;20079;-59
2022/01/26 18:04:10;;;;;;;13.88;10.23;;;7.50;99.90;;;;;;5063434;28;20040;-60
2022/01/26 18:50:24;;;;;;;14.77;10.70;;;7.50;99.90;;;;;;5068403;28;20049;-59
2022/01/26 18:52:50;;;;;;;10.98;9.60;;;7.40;99.90;;;;;;5072897;28;20458;-59
2022/01/26 18:55:17;;;;;;;12.63;9.27;;;7.40;99.90;;;;;;5069030;28;20040;-59
2022/01/26 18:57:44;;;;;;;12.98;9.05;;;7.50;99.90;;;;;;5057800;28;20131;-58
2022/01/26 19:00:11;;;;;;;11.95;8.55;;;7.40;99.90;;;;;;5051250;28;20492;-59
2022/01/26 19:02:38;;;;;;;12.43;9.48;;;7.40;99.90;;;;;;5059536;28;20393;-59
2022/01/26 19:05:08;;;;;;;12.02;9.20;;;7.40;99.90;;;;;;5062712;28;20089;-60
2022/01/26 19:07:35;;;;;;;12.13;8.88;;;7.40;99.90;;;;;;5072284;28;20133;-59
2022/01/26 19:10:03;;;;;;;11.55;8.43;;;7.40;99.90;;;;;;5059730;28;20048;-59
2022/01/26 19:12:33;;;;;;;9.77;7.25;;;7.30;99.90;;;;;;5060112;28;20048;-60
2022/01/26 19:15:04;;;;;;;11.40;7.70;;;7.30;99.90;;;;;;5061370;28;20053;-59
2022/01/26 19:17:37;;;;;;;10.80;7.47;;;7.30;99.90;;;;;;5060275;28;20138;-59
2022/01/26 19:26:05;;;;;;;10.35;7.85;;;7.00;99.90;;;;;;5058584;28;20044;-59
2022/01/26 19:47:00;;;;;;;9.85;6.88;;;6.40;99.90;;;;;;5052343;28;20133;-60
2022/01/26 19:52:10;;;;;;;7.43;5.65;;;6.30;99.90;;;;;;5047120;28;20045;-60
2022/01/26 19:54:38;;;;;;;7.68;5.63;;;6.20;99.90;;;;;;5071208;28;20068;-59
2022/01/26 19:57:05;;;;;;;8.57;6.35;;;6.20;99.90;;;;;;5075660;28;20347;-59
2022/01/26 19:59:32;;;;;;;8.70;6.30;;;6.20;99.90;;;;;;5054431;28;20048;-59
2022/01/26 20:01:59;;;;;;;9.23;5.80;;;6.10;99.90;;;;;;5078066;28;20541;-59
2022/01/26 20:04:29;;;;;;;7.97;5.78;;;6.10;99.90;;;;;;5070259;28;20487;-60
2022/01/26 20:06:56;;;;;;;7.13;5.55;;;6.00;99.90;;;;;;5080281;28;20566;-59
2022/01/26 20:09:49;;;;;;;8.25;6.10;;;5.90;99.90;;;;;;5058285;28;20087;-59
2022/01/26 20:12:23;;;;;;;6.65;4.90;;;5.90;99.90;;;;;;5060777;28;20088;-59
2022/01/26 20:14:50;;;;;;;7.03;4.80;;;5.90;99.90;;;;;;5059015;28;20079;-59
2022/01/26 20:17:16;;;;;;;7.90;5.07;;;5.80;99.90;;;;;;5056123;28;20471;-59
2022/01/26 20:19:43;;;;;;;8.02;5.30;;;5.80;99.90;;;;;;5058673;28;20049;-60
2022/01/26 20:22:10;;;;;;;6.30;4.78;;;5.80;99.90;;;;;;5058960;28;20535;-59
2022/01/26 20:24:37;;;;;;;11.52;5.43;;;5.70;99.90;;;;;;5064490;28;20557;-59
2022/01/26 20:27:07;;;;;;;7.40;5.45;;;5.70;99.90;;;;;;5058625;28;20064;-59
2022/01/26 20:29:41;;;;;;;12.07;7.13;;;5.70;99.90;;;;;;5058048;28;20576;-60
2022/01/26 20:32:08;;;;;;;9.93;6.35;;;5.70;99.90;;;;;;5061452;28;20713;-60
2022/01/26 20:34:36;;;;;;;8.93;6.50;;;5.80;99.90;;;;;;5057746;28;20045;-59
2022/01/26 20:37:03;;;;;;;8.75;5.97;;;5.90;99.90;;;;;;5061502;28;20466;-59
2022/01/26 20:39:29;;;;;;;10.32;7.43;;;5.90;99.90;;;;;;5059616;28;20048;-59